ウィレムスタッド の空港の天気 - METARとTAF

キュラソー/ハト国際空港 ( TNCC / CUR ) - ウィレムスタッド (キュラソー島)
飛行場実況気象(Metar)
観測時間09/25 16:00 AST (09/25 20:00 UTC)
風向・風速東 6m/s
視程10km以上
天気現象
なし
気温31℃
湿度66%
気圧1008hPa
METARTNCC 252000Z AUTO 09011KT 9999 NCD 31/24 Q1008
過去の天気等 Google飛行場航空写真 Wunderground天気予報

過去48時間のMETAR

飛行場予報(TAF)
発表時間: 9/25 13:15 AST (9/25 17:15 UTC)
予報対象時間: 25日14時 AST ~ 26日14時 AST
風向・風速東南東 6m/s
視程10km以上
全天の4割程度の雲 雲底高度 610m
TAF TNCC 251715Z 2518/2618 12012KT 9999 SCT020